sensor_id;sensor_type;location;lat;lon;timestamp;pressure;altitude;pressure_sealevel;temperature;humidity
30343;BME280;17145;49.902;8.680;'2023-05-23 01:58:52';99870;;;18;56
30343;BME280;17145;49.902;8.680;'2023-05-23 02:01:20';99870;;;18;56
30343;BME280;17145;49.902;8.680;'2023-05-23 02:03:47';99870;;;18;56
30343;BME280;17145;49.902;8.680;'2023-05-23 02:06:19';99870;;;19;56
30343;BME280;17145;49.902;8.680;'2023-05-23 02:08:46';99870;;;18;56
30343;BME280;17145;49.902;8.680;'2023-05-23 02:11:14';99870;;;18;56
30343;BME280;17145;49.902;8.680;'2023-05-23 02:13:41';99870;;;19;56
30343;BME280;17145;49.902;8.680;'2023-05-23 02:16:09';99870;;;18;55
30343;BME280;17145;49.902;8.680;'2023-05-23 02:18:36';99870;;;19;55
30343;BME280;17145;49.902;8.680;'2023-05-23 02:21:04';99880;;;18;56
30343;BME280;17145;49.902;8.680;'2023-05-23 02:23:31';99880;;;18;56
30343;BME280;17145;49.902;8.680;'2023-05-23 02:25:59';99880;;;18;56
30343;BME280;17145;49.902;8.680;'2023-05-23 02:28:27';99870;;;18;55
30343;BME280;17145;49.902;8.680;'2023-05-23 02:30:55';99870;;;18;55
30343;BME280;17145;49.902;8.680;'2023-05-23 02:33:22';99880;;;18;55
30343;BME280;17145;49.902;8.680;'2023-05-23 02:35:50';99880;;;18;55
30343;BME280;17145;49.902;8.680;'2023-05-23 02:38:17';99880;;;18;55
30343;BME280;17145;49.902;8.680;'2023-05-23 02:40:45';99880;;;18;55
30343;BME280;17145;49.902;8.680;'2023-05-23 02:43:12';99870;;;18;55
30343;BME280;17145;49.902;8.680;'2023-05-23 02:45:39';99880;;;18;55
30343;BME280;17145;49.902;8.680;'2023-05-23 02:48:07';99880;;;18;55
30343;BME280;17145;49.902;8.680;'2023-05-23 02:50:35';99880;;;18;55
30343;BME280;17145;49.902;8.680;'2023-05-23 02:53:03';99890;;;18;55
30343;BME280;17145;49.902;8.680;'2023-05-23 02:55:31';99890;;;18;55
30343;BME280;17145;49.902;8.680;'2023-05-23 02:57:59';99890;;;18;55
30343;BME280;17145;49.902;8.680;'2023-05-23 03:00:27';99890;;;18;55
30343;BME280;17145;49.902;8.680;'2023-05-23 03:02:55';99890;;;18;55
30343;BME280;17145;49.902;8.680;'2023-05-23 03:05:23';99890;;;18;56
30343;BME280;17145;49.902;8.680;'2023-05-23 03:07:51';99900;;;18;56
30343;BME280;17145;49.902;8.680;'2023-05-23 03:10:22';99890;;;18;55
30343;BME280;17145;49.902;8.680;'2023-05-23 03:13:01';99890;;;18;55
30343;BME280;17145;49.902;8.680;'2023-05-23 03:15:36';99890;;;18;56
30343;BME280;17145;49.902;8.680;'2023-05-23 03:18:09';99890;;;18;56
30343;BME280;17145;49.902;8.680;'2023-05-23 03:20:42';99900;;;17;56
30343;BME280;17145;49.902;8.680;'2023-05-23 03:23:32';99900;;;18;56
30343;BME280;17145;49.902;8.680;'2023-05-23 03:26:16';99900;;;18;56
30343;BME280;17145;49.902;8.680;'2023-05-23 03:28:48';99900;;;18;56
30343;BME280;17145;49.902;8.680;'2023-05-23 03:31:18';99910;;;18;56
30343;BME280;17145;49.902;8.680;'2023-05-23 03:33:49';99910;;;18;56
30343;BME280;17145;49.902;8.680;'2023-05-23 03:36:17';99900;;;18;56
30343;BME280;17145;49.902;8.680;'2023-05-23 03:38:45';99900;;;17;56
30343;BME280;17145;49.902;8.680;'2023-05-23 03:41:13';99900;;;18;56
30343;BME280;17145;49.902;8.680;'2023-05-23 03:43:40';99910;;;17;56
30343;BME280;17145;49.902;8.680;'2023-05-23 03:46:09';99910;;;18;56
30343;BME280;17145;49.902;8.680;'2023-05-23 03:48:38';99910;;;17;56
30343;BME280;17145;49.902;8.680;'2023-05-23 03:51:06';99910;;;17;56
30343;BME280;17145;49.902;8.680;'2023-05-23 03:53:36';99910;;;18;56
30343;BME280;17145;49.902;8.680;'2023-05-23 03:56:03';99910;;;17;56
30343;BME280;17145;49.902;8.680;'2023-05-23 03:58:31';99910;;;17;56
30343;BME280;17145;49.902;8.680;'2023-05-23 04:01:02';99910;;;17;56
30343;BME280;17145;49.902;8.680;'2023-05-23 04:03:30';99910;;;17;56
30343;BME280;17145;49.902;8.680;'2023-05-23 04:05:57';99920;;;17;56
30343;BME280;17145;49.902;8.680;'2023-05-23 04:08:25';99920;;;17;56
30343;BME280;17145;49.902;8.680;'2023-05-23 04:10:53';99920;;;17;56
30343;BME280;17145;49.902;8.680;'2023-05-23 04:13:20';99920;;;17;56
30343;BME280;17145;49.902;8.680;'2023-05-23 04:15:47';99920;;;17;56
30343;BME280;17145;49.902;8.680;'2023-05-23 04:18:15';99930;;;17;56
30343;BME280;17145;49.902;8.680;'2023-05-23 04:20:43';99930;;;17;56
30343;BME280;17145;49.902;8.680;'2023-05-23 04:23:10';99930;;;17;56
30343;BME280;17145;49.902;8.680;'2023-05-23 04:25:37';99940;;;17;56
30343;BME280;17145;49.902;8.680;'2023-05-23 04:28:05';99940;;;17;56
30343;BME280;17145;49.902;8.680;'2023-05-23 04:30:33';99940;;;17;56
30343;BME280;17145;49.902;8.680;'2023-05-23 04:33:04';99940;;;17;57
30343;BME280;17145;49.902;8.680;'2023-05-23 04:35:32';99950;;;17;57
30343;BME280;17145;49.902;8.680;'2023-05-23 04:38:00';99950;;;17;57
30343;BME280;17145;49.902;8.680;'2023-05-23 04:40:27';99960;;;17;57
30343;BME280;17145;49.902;8.680;'2023-05-23 04:42:55';99960;;;17;57
30343;BME280;17145;49.902;8.680;'2023-05-23 04:45:23';99960;;;17;57
30343;BME280;17145;49.902;8.680;'2023-05-23 04:47:50';99960;;;17;57
30343;BME280;17145;49.902;8.680;'2023-05-23 04:50:18';99960;;;17;57
30343;BME280;17145;49.902;8.680;'2023-05-23 04:52:45';99960;;;17;57
30343;BME280;17145;49.902;8.680;'2023-05-23 04:55:13';99960;;;17;57
30343;BME280;17145;49.902;8.680;'2023-05-23 04:57:40';99960;;;17;57
30343;BME280;17145;49.902;8.680;'2023-05-23 05:00:08';99960;;;17;56
30343;BME280;17145;49.902;8.680;'2023-05-23 05:02:36';99970;;;17;56
30343;BME280;17145;49.902;8.680;'2023-05-23 05:05:04';99970;;;17;56
30343;BME280;17145;49.902;8.680;'2023-05-23 05:07:32';99970;;;17;56
30343;BME280;17145;49.902;8.680;'2023-05-23 05:09:59';99960;;;17;56
30343;BME280;17145;49.902;8.680;'2023-05-23 05:12:27';99960;;;17;56
30343;BME280;17145;49.902;8.680;'2023-05-23 05:14:54';99970;;;17;56
30343;BME280;17145;49.902;8.680;'2023-05-23 05:17:24';99970;;;17;56
30343;BME280;17145;49.902;8.680;'2023-05-23 05:19:51';99970;;;17;56
30343;BME280;17145;49.902;8.680;'2023-05-23 05:22:19';99970;;;17;56
30343;BME280;17145;49.902;8.680;'2023-05-23 05:24:46';99980;;;17;56
30343;BME280;17145;49.902;8.680;'2023-05-23 05:27:14';99980;;;17;56
30343;BME280;17145;49.902;8.680;'2023-05-23 05:29:41';99980;;;17;56
30343;BME280;17145;49.902;8.680;'2023-05-23 05:32:09';99980;;;17;56
30343;BME280;17145;49.902;8.680;'2023-05-23 05:34:37';99980;;;17;55
30343;BME280;17145;49.902;8.680;'2023-05-23 05:37:06';99980;;;17;55
30343;BME280;17145;49.902;8.680;'2023-05-23 05:39:34';99980;;;17;55
30343;BME280;17145;49.902;8.680;'2023-05-23 05:42:01';99980;;;17;56
30343;BME280;17145;49.902;8.680;'2023-05-23 05:44:28';99990;;;17;55
30343;BME280;17145;49.902;8.680;'2023-05-23 05:46:56';99990;;;17;56
30343;BME280;17145;49.902;8.680;'2023-05-23 05:49:24';99980;;;17;55
30343;BME280;17145;49.902;8.680;'2023-05-23 05:51:52';99990;;;17;55
30343;BME280;17145;49.902;8.680;'2023-05-23 05:54:20';99990;;;17;55
30343;BME280;17145;49.902;8.680;'2023-05-23 05:56:48';100000;;;17;55
30343;BME280;17145;49.902;8.680;'2023-05-23 05:59:16';100000;;;17;55
30343;BME280;17145;49.902;8.680;'2023-05-23 06:01:43';100000;;;17;55
30343;BME280;17145;49.902;8.680;'2023-05-23 06:04:11';100010;;;17;55
30343;BME280;17145;49.902;8.680;'2023-05-23 06:06:39';100020;;;17;55
30343;BME280;17145;49.902;8.680;'2023-05-23 06:09:07';100020;;;17;55
30343;BME280;17145;49.902;8.680;'2023-05-23 06:11:34';100020;;;16;55
30343;BME280;17145;49.902;8.680;'2023-05-23 06:14:01';100030;;;16;54
30343;BME280;17145;49.902;8.680;'2023-05-23 06:16:28';100030;;;16;54
30343;BME280;17145;49.902;8.680;'2023-05-23 06:18:56';100040;;;16;54
30343;BME280;17145;49.902;8.680;'2023-05-23 06:21:24';100040;;;16;54
30343;BME280;17145;49.902;8.680;'2023-05-23 06:23:51';100040;;;16;54
30343;BME280;17145;49.902;8.680;'2023-05-23 06:26:18';100040;;;16;53
30343;BME280;17145;49.902;8.680;'2023-05-23 06:28:46';100040;;;16;54
30343;BME280;17145;49.902;8.680;'2023-05-23 06:31:13';100040;;;16;53
30343;BME280;17145;49.902;8.680;'2023-05-23 06:33:41';100050;;;16;54
30343;BME280;17145;49.902;8.680;'2023-05-23 06:36:09';100050;;;16;54
30343;BME280;17145;49.902;8.680;'2023-05-23 06:38:36';100050;;;16;54
30343;BME280;17145;49.902;8.680;'2023-05-23 06:41:04';100050;;;16;53
30343;BME280;17145;49.902;8.680;'2023-05-23 06:43:32';100050;;;16;53
30343;BME280;17145;49.902;8.680;'2023-05-23 06:46:00';100050;;;16;53
30343;BME280;17145;49.902;8.680;'2023-05-23 06:48:28';100060;;;16;53
30343;BME280;17145;49.902;8.680;'2023-05-23 06:50:56';100060;;;16;53
30343;BME280;17145;49.902;8.680;'2023-05-23 06:53:23';100070;;;16;53
30343;BME280;17145;49.902;8.680;'2023-05-23 06:55:51';100070;;;16;53
30343;BME280;17145;49.902;8.680;'2023-05-23 06:58:18';100070;;;16;53
30343;BME280;17145;49.902;8.680;'2023-05-23 07:00:46';100070;;;16;53
30343;BME280;17145;49.902;8.680;'2023-05-23 07:03:13';100070;;;15;53
30343;BME280;17145;49.902;8.680;'2023-05-23 07:05:40';100070;;;16;53
30343;BME280;17145;49.902;8.680;'2023-05-23 07:08:08';100080;;;16;53
30343;BME280;17145;49.902;8.680;'2023-05-23 07:10:37';100080;;;16;53
30343;BME280;17145;49.902;8.680;'2023-05-23 07:13:04';100080;;;16;53
30343;BME280;17145;49.902;8.680;'2023-05-23 07:15:32';100090;;;16;53
30343;BME280;17145;49.902;8.680;'2023-05-23 07:17:59';100080;;;16;52
30343;BME280;17145;49.902;8.680;'2023-05-23 07:20:26';100090;;;16;52
30343;BME280;17145;49.902;8.680;'2023-05-23 07:22:55';100090;;;16;52
30343;BME280;17145;49.902;8.680;'2023-05-23 07:25:22';100100;;;16;52
30343;BME280;17145;49.902;8.680;'2023-05-23 07:27:50';100090;;;16;52
30343;BME280;17145;49.902;8.680;'2023-05-23 07:30:17';100090;;;16;52
30343;BME280;17145;49.902;8.680;'2023-05-23 07:32:45';100090;;;16;52
30343;BME280;17145;49.902;8.680;'2023-05-23 07:35:12';100100;;;16;52
30343;BME280;17145;49.902;8.680;'2023-05-23 07:37:40';100100;;;16;52
30343;BME280;17145;49.902;8.680;'2023-05-23 07:40:08';100100;;;16;52
30343;BME280;17145;49.902;8.680;'2023-05-23 07:42:35';100100;;;17;52
30343;BME280;17145;49.902;8.680;'2023-05-23 07:45:03';100110;;;16;52
30343;BME280;17145;49.902;8.680;'2023-05-23 07:47:31';100100;;;16;51
30343;BME280;17145;49.902;8.680;'2023-05-23 07:49:58';100110;;;17;52
30343;BME280;17145;49.902;8.680;'2023-05-23 07:52:25';100120;;;17;52
30343;BME280;17145;49.902;8.680;'2023-05-23 07:54:53';100110;;;17;51
30343;BME280;17145;49.902;8.680;'2023-05-23 07:57:21';100120;;;16;51
30343;BME280;17145;49.902;8.680;'2023-05-23 07:59:48';100120;;;17;51
30343;BME280;17145;49.902;8.680;'2023-05-23 08:02:15';100130;;;17;51
30343;BME280;17145;49.902;8.680;'2023-05-23 08:04:43';100130;;;17;50
30343;BME280;17145;49.902;8.680;'2023-05-23 08:07:10';100130;;;17;51
30343;BME280;17145;49.902;8.680;'2023-05-23 08:09:37';100130;;;17;51
30343;BME280;17145;49.902;8.680;'2023-05-23 08:12:05';100130;;;17;51
30343;BME280;17145;49.902;8.680;'2023-05-23 08:14:33';100130;;;17;50
30343;BME280;17145;49.902;8.680;'2023-05-23 08:17:01';100140;;;16;51
30343;BME280;17145;49.902;8.680;'2023-05-23 08:19:28';100140;;;16;50
30343;BME280;17145;49.902;8.680;'2023-05-23 08:21:56';100140;;;17;50
30343;BME280;17145;49.902;8.680;'2023-05-23 08:24:23';100140;;;17;50
30343;BME280;17145;49.902;8.680;'2023-05-23 08:26:50';100140;;;16;50
30343;BME280;17145;49.902;8.680;'2023-05-23 08:29:18';100140;;;17;50
30343;BME280;17145;49.902;8.680;'2023-05-23 08:31:45';100150;;;17;49
30343;BME280;17145;49.902;8.680;'2023-05-23 08:34:13';100150;;;16;49
30343;BME280;17145;49.902;8.680;'2023-05-23 08:36:40';100140;;;17;49
30343;BME280;17145;49.902;8.680;'2023-05-23 08:39:08';100150;;;16;48
30343;BME280;17145;49.902;8.680;'2023-05-23 08:41:35';100150;;;17;49
30343;BME280;17145;49.902;8.680;'2023-05-23 08:44:02';100150;;;17;49
30343;BME280;17145;49.902;8.680;'2023-05-23 08:46:30';100160;;;17;50
30343;BME280;17145;49.902;8.680;'2023-05-23 08:48:57';100160;;;17;49
30343;BME280;17145;49.902;8.680;'2023-05-23 08:51:25';100160;;;17;49
30343;BME280;17145;49.902;8.680;'2023-05-23 08:53:52';100160;;;17;49
30343;BME280;17145;49.902;8.680;'2023-05-23 08:56:20';100160;;;16;50
30343;BME280;17145;49.902;8.680;'2023-05-23 08:58:47';100160;;;16;50
30343;BME280;17145;49.902;8.680;'2023-05-23 09:01:14';100160;;;16;49
30343;BME280;17145;49.902;8.680;'2023-05-23 09:03:42';100160;;;17;49
30343;BME280;17145;49.902;8.680;'2023-05-23 09:06:09';100160;;;17;49
30343;BME280;17145;49.902;8.680;'2023-05-23 09:08:37';100160;;;17;49
30343;BME280;17145;49.902;8.680;'2023-05-23 09:11:05';100160;;;17;49
30343;BME280;17145;49.902;8.680;'2023-05-23 09:13:32';100160;;;17;49
30343;BME280;17145;49.902;8.680;'2023-05-23 09:16:00';100160;;;17;50
30343;BME280;17145;49.902;8.680;'2023-05-23 09:18:27';100160;;;17;49
30343;BME280;17145;49.902;8.680;'2023-05-23 09:20:55';100160;;;17;49
30343;BME280;17145;49.902;8.680;'2023-05-23 09:23:22';100160;;;17;48
30343;BME280;17145;49.902;8.680;'2023-05-23 09:25:50';100160;;;17;48
30343;BME280;17145;49.902;8.680;'2023-05-23 09:28:18';100160;;;18;48
30343;BME280;17145;49.902;8.680;'2023-05-23 09:30:46';100170;;;18;48
30343;BME280;17145;49.902;8.680;'2023-05-23 09:33:13';100170;;;18;48
30343;BME280;17145;49.902;8.680;'2023-05-23 09:35:43';100160;;;17;47
30343;BME280;17145;49.902;8.680;'2023-05-23 09:38:10';100160;;;18;46
30343;BME280;17145;49.902;8.680;'2023-05-23 09:40:38';100150;;;18;46
30343;BME280;17145;49.902;8.680;'2023-05-23 09:43:05';100140;;;17;46
30343;BME280;17145;49.902;8.680;'2023-05-23 09:45:32';100130;;;17;46
30343;BME280;17145;49.902;8.680;'2023-05-23 09:48:00';100130;;;18;45
30343;BME280;17145;49.902;8.680;'2023-05-23 09:50:27';100140;;;17;46
30343;BME280;17145;49.902;8.680;'2023-05-23 09:52:55';100140;;;17;45
30343;BME280;17145;49.902;8.680;'2023-05-23 09:55:22';100150;;;18;45
30343;BME280;17145;49.902;8.680;'2023-05-23 09:57:49';100150;;;17;46
30343;BME280;17145;49.902;8.680;'2023-05-23 10:00:18';100160;;;17;46
30343;BME280;17145;49.902;8.680;'2023-05-23 10:02:45';100160;;;18;46
30343;BME280;17145;49.902;8.680;'2023-05-23 10:05:13';100160;;;17;46
30343;BME280;17145;49.902;8.680;'2023-05-23 10:07:40';100170;;;17;46
30343;BME280;17145;49.902;8.680;'2023-05-23 10:10:08';100170;;;17;46
30343;BME280;17145;49.902;8.680;'2023-05-23 10:12:35';100170;;;17;46
30343;BME280;17145;49.902;8.680;'2023-05-23 10:15:03';100170;;;18;46
30343;BME280;17145;49.902;8.680;'2023-05-23 10:17:30';100170;;;17;46
30343;BME280;17145;49.902;8.680;'2023-05-23 10:19:58';100170;;;17;46
30343;BME280;17145;49.902;8.680;'2023-05-23 10:22:25';100180;;;18;46
30343;BME280;17145;49.902;8.680;'2023-05-23 10:24:52';100170;;;17;46
30343;BME280;17145;49.902;8.680;'2023-05-23 10:27:20';100170;;;18;46
30343;BME280;17145;49.902;8.680;'2023-05-23 10:29:48';100170;;;18;47
30343;BME280;17145;49.902;8.680;'2023-05-23 10:32:15';100170;;;18;47
30343;BME280;17145;49.902;8.680;'2023-05-23 10:34:42';100180;;;18;45
30343;BME280;17145;49.902;8.680;'2023-05-23 10:37:09';100170;;;18;45
30343;BME280;17145;49.902;8.680;'2023-05-23 10:39:37';100170;;;18;45
30343;BME280;17145;49.902;8.680;'2023-05-23 10:42:04';100170;;;18;45
30343;BME280;17145;49.902;8.680;'2023-05-23 10:44:32';100170;;;19;44
30343;BME280;17145;49.902;8.680;'2023-05-23 10:47:02';100180;;;18;44
30343;BME280;17145;49.902;8.680;'2023-05-23 10:49:30';100180;;;19;44
30343;BME280;17145;49.902;8.680;'2023-05-23 10:52:01';100180;;;19;44
30343;BME280;17145;49.902;8.680;'2023-05-23 10:54:29';100180;;;18;43
30343;BME280;17145;49.902;8.680;'2023-05-23 10:56:56';100180;;;18;43
30343;BME280;17145;49.902;8.680;'2023-05-23 10:59:25';100180;;;18;44
30343;BME280;17145;49.902;8.680;'2023-05-23 11:01:55';100180;;;18;44
30343;BME280;17145;49.902;8.680;'2023-05-23 11:04:22';100180;;;19;44
30343;BME280;17145;49.902;8.680;'2023-05-23 11:06:49';100190;;;18;44
30343;BME280;17145;49.902;8.680;'2023-05-23 11:09:17';100180;;;19;44
30343;BME280;17145;49.902;8.680;'2023-05-23 11:11:45';100190;;;19;44
30343;BME280;17145;49.902;8.680;'2023-05-23 11:14:13';100190;;;19;45
30343;BME280;17145;49.902;8.680;'2023-05-23 11:16:45';100190;;;19;43
30343;BME280;17145;49.902;8.680;'2023-05-23 11:19:13';100190;;;19;43
30343;BME280;17145;49.902;8.680;'2023-05-23 11:21:43';100190;;;18;43
30343;BME280;17145;49.902;8.680;'2023-05-23 11:24:10';100190;;;18;43
30343;BME280;17145;49.902;8.680;'2023-05-23 11:26:38';100190;;;19;43
30343;BME280;17145;49.902;8.680;'2023-05-23 11:29:06';100190;;;19;43
30343;BME280;17145;49.902;8.680;'2023-05-23 11:31:33';100180;;;18;43
30343;BME280;17145;49.902;8.680;'2023-05-23 11:34:01';100180;;;19;43
30343;BME280;17145;49.902;8.680;'2023-05-23 11:36:29';100180;;;19;43
30343;BME280;17145;49.902;8.680;'2023-05-23 11:39:00';100180;;;19;43
30343;BME280;17145;49.902;8.680;'2023-05-23 11:41:31';100180;;;19;43
30343;BME280;17145;49.902;8.680;'2023-05-23 11:44:04';100190;;;19;44
30343;BME280;17145;49.902;8.680;'2023-05-23 11:46:35';100180;;;19;44
30343;BME280;17145;49.902;8.680;'2023-05-23 11:49:07';100190;;;19;44
30343;BME280;17145;49.902;8.680;'2023-05-23 11:51:34';100190;;;18;43
30343;BME280;17145;49.902;8.680;'2023-05-23 11:54:02';100190;;;19;44
30343;BME280;17145;49.902;8.680;'2023-05-23 11:56:30';100200;;;19;44
30343;BME280;17145;49.902;8.680;'2023-05-23 11:58:58';100190;;;18;43
30343;BME280;17145;49.902;8.680;'2023-05-23 12:01:30';100200;;;18;44
30343;BME280;17145;49.902;8.680;'2023-05-23 12:03:58';100200;;;18;44
30343;BME280;17145;49.902;8.680;'2023-05-23 12:06:30';100200;;;19;44
30343;BME280;17145;49.902;8.680;'2023-05-23 12:11:48';100200;;;18;44
30343;BME280;17145;49.902;8.680;'2023-05-23 12:14:16';100200;;;19;43
30343;BME280;17145;49.902;8.680;'2023-05-23 12:16:56';100210;;;18;44
30343;BME280;17145;49.902;8.680;'2023-05-23 12:19:26';100210;;;19;44
30343;BME280;17145;49.902;8.680;'2023-05-23 12:21:58';100210;;;19;44
30343;BME280;17145;49.902;8.680;'2023-05-23 12:24:25';100210;;;19;44
30343;BME280;17145;49.902;8.680;'2023-05-23 12:26:53';100200;;;19;44
30343;BME280;17145;49.902;8.680;'2023-05-23 12:29:21';100200;;;19;43
30343;BME280;17145;49.902;8.680;'2023-05-23 12:31:50';100200;;;19;43
30343;BME280;17145;49.902;8.680;'2023-05-23 12:34:26';100200;;;19;43
30343;BME280;17145;49.902;8.680;'2023-05-23 12:36:59';100210;;;19;43
30343;BME280;17145;49.902;8.680;'2023-05-23 12:39:39';100200;;;20;41
30343;BME280;17145;49.902;8.680;'2023-05-23 12:42:12';100210;;;19;42
30343;BME280;17145;49.902;8.680;'2023-05-23 12:44:39';100200;;;19;41
30343;BME280;17145;49.902;8.680;'2023-05-23 12:47:06';100200;;;19;41
30343;BME280;17145;49.902;8.680;'2023-05-23 12:49:38';100200;;;19;42
30343;BME280;17145;49.902;8.680;'2023-05-23 12:52:07';100210;;;19;43
30343;BME280;17145;49.902;8.680;'2023-05-23 12:54:35';100210;;;19;42
30343;BME280;17145;49.902;8.680;'2023-05-23 12:57:03';100220;;;19;42
30343;BME280;17145;49.902;8.680;'2023-05-23 12:59:31';100220;;;19;42
30343;BME280;17145;49.902;8.680;'2023-05-23 13:01:59';100220;;;19;42
30343;BME280;17145;49.902;8.680;'2023-05-23 13:04:28';100220;;;19;43
30343;BME280;17145;49.902;8.680;'2023-05-23 13:06:56';100210;;;19;43
30343;BME280;17145;49.902;8.680;'2023-05-23 13:09:23';100210;;;19;43
30343;BME280;17145;49.902;8.680;'2023-05-23 13:11:52';100210;;;19;43
30343;BME280;17145;49.902;8.680;'2023-05-23 13:14:31';100220;;;19;43
30343;BME280;17145;49.902;8.680;'2023-05-23 13:16:59';100220;;;19;43
30343;BME280;17145;49.902;8.680;'2023-05-23 13:19:28';100210;;;19;42
30343;BME280;17145;49.902;8.680;'2023-05-23 13:24:40';100220;;;19;42
30343;BME280;17145;49.902;8.680;'2023-05-23 13:27:11';100220;;;20;41
30343;BME280;17145;49.902;8.680;'2023-05-23 13:29:38';100210;;;20;41
30343;BME280;17145;49.902;8.680;'2023-05-23 13:32:10';100220;;;19;41
30343;BME280;17145;49.902;8.680;'2023-05-23 13:34:38';100210;;;20;41
30343;BME280;17145;49.902;8.680;'2023-05-23 13:37:06';100210;;;19;41
30343;BME280;17145;49.902;8.680;'2023-05-23 13:39:34';100220;;;19;41
30343;BME280;17145;49.902;8.680;'2023-05-23 13:42:02';100220;;;18;42
30343;BME280;17145;49.902;8.680;'2023-05-23 13:44:30';100210;;;19;42
30343;BME280;17145;49.902;8.680;'2023-05-23 13:46:59';100220;;;19;43
30343;BME280;17145;49.902;8.680;'2023-05-23 13:49:28';100220;;;19;43
30343;BME280;17145;49.902;8.680;'2023-05-23 13:51:57';100210;;;20;42
30343;BME280;17145;49.902;8.680;'2023-05-23 13:54:25';100210;;;20;42
30343;BME280;17145;49.902;8.680;'2023-05-23 13:56:53';100220;;;20;42
30343;BME280;17145;49.902;8.680;'2023-05-23 13:59:21';100220;;;20;41
30343;BME280;17145;49.902;8.680;'2023-05-23 14:01:48';100220;;;20;40
30343;BME280;17145;49.902;8.680;'2023-05-23 14:04:15';100220;;;20;40
30343;BME280;17145;49.902;8.680;'2023-05-23 14:06:46';100220;;;20;40
30343;BME280;17145;49.902;8.680;'2023-05-23 14:09:14';100220;;;20;40
30343;BME280;17145;49.902;8.680;'2023-05-23 14:11:43';100220;;;20;41
30343;BME280;17145;49.902;8.680;'2023-05-23 14:14:14';100220;;;21;41
30343;BME280;17145;49.902;8.680;'2023-05-23 14:16:43';100220;;;21;40
30343;BME280;17145;49.902;8.680;'2023-05-23 14:19:11';100220;;;22;38
30343;BME280;17145;49.902;8.680;'2023-05-23 14:21:43';100220;;;22;38
30343;BME280;17145;49.902;8.680;'2023-05-23 14:24:14';100220;;;21;37
30343;BME280;17145;49.902;8.680;'2023-05-23 14:26:48';100210;;;21;37
30343;BME280;17145;49.902;8.680;'2023-05-23 14:29:18';100220;;;22;37
30343;BME280;17145;49.902;8.680;'2023-05-23 14:31:49';100220;;;22;38
30343;BME280;17145;49.902;8.680;'2023-05-23 14:34:18';100220;;;22;37
30343;BME280;17145;49.902;8.680;'2023-05-23 14:36:46';100220;;;22;37
30343;BME280;17145;49.902;8.680;'2023-05-23 14:39:14';100220;;;22;37
30343;BME280;17145;49.902;8.680;'2023-05-23 14:41:43';100220;;;22;37
30343;BME280;17145;49.902;8.680;'2023-05-23 14:44:14';100220;;;21;37
30343;BME280;17145;49.902;8.680;'2023-05-23 14:46:42';100220;;;22;38
30343;BME280;17145;49.902;8.680;'2023-05-23 14:49:10';100230;;;21;37
30343;BME280;17145;49.902;8.680;'2023-05-23 14:51:37';100220;;;22;38
30343;BME280;17145;49.902;8.680;'2023-05-23 14:54:05';100230;;;21;38
30343;BME280;17145;49.902;8.680;'2023-05-23 14:56:32';100220;;;21;38
30343;BME280;17145;49.902;8.680;'2023-05-23 14:59:01';100220;;;21;38
30343;BME280;17145;49.902;8.680;'2023-05-23 15:01:29';100230;;;21;37
30343;BME280;17145;49.902;8.680;'2023-05-23 15:03:56';100230;;;21;37
30343;BME280;17145;49.902;8.680;'2023-05-23 15:06:24';100220;;;21;38
30343;BME280;17145;49.902;8.680;'2023-05-23 15:08:51';100230;;;21;38
30343;BME280;17145;49.902;8.680;'2023-05-23 15:11:19';100220;;;20;38
30343;BME280;17145;49.902;8.680;'2023-05-23 15:13:46';100230;;;20;39
30343;BME280;17145;49.902;8.680;'2023-05-23 15:16:14';100230;;;20;40
30343;BME280;17145;49.902;8.680;'2023-05-23 15:18:41';100230;;;20;39
30343;BME280;17145;49.902;8.680;'2023-05-23 15:21:09';100220;;;20;39
30343;BME280;17145;49.902;8.680;'2023-05-23 15:23:36';100220;;;20;40
30343;BME280;17145;49.902;8.680;'2023-05-23 15:26:04';100230;;;20;40
30343;BME280;17145;49.902;8.680;'2023-05-23 15:28:31';100220;;;20;39
30343;BME280;17145;49.902;8.680;'2023-05-23 15:30:59';100230;;;21;38
30343;BME280;17145;49.902;8.680;'2023-05-23 15:33:26';100230;;;21;38
30343;BME280;17145;49.902;8.680;'2023-05-23 15:35:53';100230;;;21;39
30343;BME280;17145;49.902;8.680;'2023-05-23 15:38:22';100230;;;20;38
30343;BME280;17145;49.902;8.680;'2023-05-23 15:40:49';100230;;;21;38
30343;BME280;17145;49.902;8.680;'2023-05-23 15:43:17';100240;;;20;38
30343;BME280;17145;49.902;8.680;'2023-05-23 15:45:44';100240;;;20;38
30343;BME280;17145;49.902;8.680;'2023-05-23 15:48:11';100240;;;20;38
30343;BME280;17145;49.902;8.680;'2023-05-23 15:50:39';100240;;;20;38
30343;BME280;17145;49.902;8.680;'2023-05-23 15:53:06';100240;;;20;38
30343;BME280;17145;49.902;8.680;'2023-05-23 15:55:33';100240;;;19;39
30343;BME280;17145;49.902;8.680;'2023-05-23 15:58:01';100240;;;19;39
30343;BME280;17145;49.902;8.680;'2023-05-23 16:00:28';100230;;;20;39
30343;BME280;17145;49.902;8.680;'2023-05-23 16:02:56';100220;;;20;38
30343;BME280;17145;49.902;8.680;'2023-05-23 16:05:23';100220;;;20;38
30343;BME280;17145;49.902;8.680;'2023-05-23 16:07:50';100220;;;21;38
30343;BME280;17145;49.902;8.680;'2023-05-23 16:10:18';100230;;;21;38
30343;BME280;17145;49.902;8.680;'2023-05-23 16:12:45';100230;;;21;36
30343;BME280;17145;49.902;8.680;'2023-05-23 16:15:13';100230;;;20;37
30343;BME280;17145;49.902;8.680;'2023-05-23 16:17:40';100230;;;20;37
30343;BME280;17145;49.902;8.680;'2023-05-23 16:20:08';100230;;;20;38